Pereiro, Brazil
Current Conditions -  °F | °C
As of 5:00 AM on Friday 24 Oct 2014 (Local Time) from SBJU Reporting Station
Broken Clouds Broken Clouds  
Wind Chill: 79°   Ceiling: 2000
Heat Index: 81°   Visibility: 6mi
Dew Point: 70°   Wind: 7mph
Humidity: 74%   Direction: 170°S
Pressure: 30"   Gusts: NA
Location:  6.04°S, 38.46°W
Report Text: SBJU 240800Z 17006KT 9999 BKN020 26/21 Q1016
Loading
Personal Weather Stations






























Interactive Weather Map
Tropical Storm Tracking
New forecast layout! Learn more

10-Day Weather Forecast

Advertisements
Track Severe Weather on mobile